createdAt,value
2022-10-18T00:00:12.405Z,9.78
2022-10-18T00:01:14.159Z,9.82
2022-10-18T00:02:15.827Z,9.87
2022-10-18T00:03:17.472Z,9.92
2022-10-18T00:04:19.022Z,9.97
2022-10-18T00:05:20.577Z,10.01
2022-10-18T00:06:22.150Z,10.03
2022-10-18T00:07:23.755Z,10.04
2022-10-18T00:08:26.390Z,10.05
2022-10-18T00:09:27.915Z,10.10
2022-10-18T00:10:29.456Z,10.12
2022-10-18T00:11:31.017Z,10.16
2022-10-18T00:12:37.339Z,10.13
2022-10-18T00:13:39.117Z,9.93
2022-10-18T00:14:40.692Z,9.75
2022-10-18T00:16:12.980Z,9.62
2022-10-18T00:17:14.530Z,9.56
2022-10-18T00:18:16.045Z,9.48
2022-10-18T00:19:17.570Z,9.46
2022-10-18T00:20:19.656Z,9.47
2022-10-18T00:21:22.970Z,9.52
2022-10-18T00:22:25.409Z,9.54
2022-10-18T00:23:28.437Z,9.58
2022-10-18T00:24:29.987Z,9.68
2022-10-18T00:25:31.499Z,9.77
2022-10-18T00:26:33.132Z,9.80
2022-10-18T00:27:35.308Z,9.79
2022-10-18T00:28:39.074Z,9.81
2022-10-18T00:29:40.715Z,9.83
2022-10-18T00:30:42.291Z,9.87
2022-10-18T00:31:44.433Z,9.88
2022-10-18T00:32:45.967Z,9.89
2022-10-18T00:33:50.992Z,9.90
2022-10-18T00:34:52.762Z,9.91
2022-10-18T00:35:54.346Z,9.90
2022-10-18T00:36:56.001Z,9.89
2022-10-18T00:37:57.533Z,9.91
2022-10-18T00:38:59.047Z,9.92
2022-10-18T00:40:00.614Z,9.93
2022-10-18T00:41:03.101Z,9.92
2022-10-18T00:42:04.879Z,9.93
2022-10-18T00:43:06.406Z,9.93
2022-10-18T00:44:27.847Z,9.95
2022-10-18T00:45:29.578Z,9.96
2022-10-18T00:46:33.953Z,9.96
2022-10-18T00:47:35.861Z,9.99
2022-10-18T00:48:37.630Z,9.95
2022-10-18T00:49:43.912Z,9.91
2022-10-18T00:50:46.590Z,9.91
2022-10-18T00:52:00.781Z,9.91
2022-10-18T00:53:07.012Z,9.92
2022-10-18T00:54:08.624Z,9.94
2022-10-18T00:55:10.842Z,9.97
2022-10-18T00:56:13.667Z,9.99
2022-10-18T00:57:15.813Z,9.98
2022-10-18T00:58:19.266Z,9.99
2022-10-18T00:59:21.256Z,10.02
2022-10-18T01:00:23.086Z,10.02
2022-10-18T01:01:27.608Z,10.04
2022-10-18T01:02:32.120Z,10.03
2022-10-18T01:03:35.389Z,10.04
2022-10-18T01:04:37.126Z,10.00
2022-10-18T01:05:44.218Z,10.02
2022-10-18T01:07:08.759Z,9.99
2022-10-18T01:08:19.259Z,9.93
2022-10-18T01:09:30.739Z,9.87
2022-10-18T01:10:48.383Z,9.85
2022-10-18T01:12:08.513Z,9.78
2022-10-18T01:13:57.665Z,9.68
2022-10-18T01:15:06.268Z,9.69
2022-10-18T01:16:17.187Z,9.70
2022-10-18T01:17:32.805Z,9.72
2022-10-18T01:18:37.471Z,9.73
2022-10-18T01:20:03.404Z,9.77
2022-10-18T01:21:22.430Z,9.81
2022-10-18T01:22:28.994Z,9.79
2022-10-18T01:24:05.446Z,9.67
2022-10-18T01:25:07.098Z,9.54
2022-10-18T01:26:35.047Z,9.50
2022-10-18T01:27:59.442Z,9.44
2022-10-18T01:29:17.146Z,9.16
2022-10-18T01:30:48.319Z,9.03
2022-10-18T01:32:06.334Z,9.07
2022-10-18T01:33:10.482Z,9.16
2022-10-18T01:34:16.941Z,8.98
2022-10-18T01:35:25.395Z,8.74
2022-10-18T01:36:34.912Z,8.54
2022-10-18T01:37:38.677Z,8.50
2022-10-18T01:38:42.908Z,8.54
2022-10-18T01:39:47.269Z,8.58
2022-10-18T01:40:50.690Z,8.51
2022-10-18T01:41:54.406Z,8.42
2022-10-18T01:42:56.046Z,8.37
2022-10-18T01:44:02.176Z,8.34
2022-10-18T01:45:04.618Z,8.34
2022-10-18T01:46:08.635Z,8.29
2022-10-18T01:47:13.079Z,8.10
2022-10-18T01:48:16.365Z,7.97
2022-10-18T01:49:17.879Z,7.89
2022-10-18T01:50:29.437Z,7.89
2022-10-18T01:51:33.043Z,7.90
2022-10-18T01:52:34.998Z,7.91
2022-10-18T01:53:36.654Z,7.84
2022-10-18T01:54:42.265Z,7.75
2022-10-18T01:55:51.184Z,7.78
2022-10-18T01:57:00.392Z,7.79
2022-10-18T01:58:39.541Z,7.77
2022-10-18T01:59:59.307Z,7.76
2022-10-18T02:02:39.900Z,7.77
2022-10-18T02:03:44.565Z,7.77
2022-10-18T02:05:06.747Z,7.88
2022-10-18T02:06:18.948Z,8.04
2022-10-18T02:07:37.199Z,8.10
2022-10-18T02:08:44.701Z,8.16
2022-10-18T02:09:55.676Z,8.17
2022-10-18T02:11:02.686Z,8.19
2022-10-18T02:12:06.371Z,8.25
2022-10-18T02:13:10.858Z,8.21
2022-10-18T02:14:16.479Z,8.22
2022-10-18T02:15:23.789Z,8.26
2022-10-18T02:16:37.832Z,8.29
2022-10-18T02:17:40.734Z,8.31
2022-10-18T02:19:05.835Z,8.39
2022-10-18T02:20:10.170Z,8.36
2022-10-18T02:21:15.885Z,8.33
2022-10-18T02:22:18.533Z,8.29
2022-10-18T02:23:24.047Z,8.29
2022-10-18T02:24:34.439Z,8.28
2022-10-18T02:25:36.941Z,8.34
2022-10-18T02:26:38.837Z,8.38
2022-10-18T02:27:40.436Z,8.46
2022-10-18T02:28:42.603Z,8.49
2022-10-18T02:29:45.214Z,8.47
2022-10-18T02:30:53.208Z,8.51
2022-10-18T02:32:31.540Z,8.54
2022-10-18T02:33:45.405Z,8.58
2022-10-18T02:34:57.169Z,8.60
2022-10-18T02:36:10.516Z,8.62
2022-10-18T02:37:14.479Z,8.63
2022-10-18T02:38:18.845Z,8.65
2022-10-18T02:39:35.796Z,8.67
2022-10-18T02:40:37.647Z,8.55
2022-10-18T02:41:39.266Z,8.45
2022-10-18T02:42:50.918Z,8.44
2022-10-18T02:43:53.054Z,8.43
2022-10-18T02:44:54.641Z,8.39
2022-10-18T02:45:56.222Z,8.34
2022-10-18T02:46:57.733Z,8.35
2022-10-18T02:47:59.284Z,8.37
2022-10-18T02:49:00.826Z,8.40
2022-10-18T02:50:02.376Z,8.44
2022-10-18T02:51:03.995Z,8.48
2022-10-18T02:52:05.540Z,8.50
2022-10-18T02:53:07.036Z,8.50
2022-10-18T02:54:08.655Z,8.37
2022-10-18T02:55:10.855Z,8.29
2022-10-18T02:56:12.444Z,8.29
2022-10-18T02:57:14.008Z,8.32
2022-10-18T02:58:15.528Z,8.36
2022-10-18T02:59:17.073Z,8.38
2022-10-18T03:00:18.698Z,8.40
2022-10-18T03:01:20.271Z,8.41
2022-10-18T03:02:21.847Z,8.39
2022-10-18T03:03:23.385Z,8.40
2022-10-18T03:04:24.941Z,8.39
2022-10-18T03:05:26.502Z,8.35
2022-10-18T03:06:28.597Z,8.31
2022-10-18T03:07:30.657Z,8.16
2022-10-18T03:08:32.531Z,8.01
2022-10-18T03:09:34.056Z,7.79
2022-10-18T03:10:35.585Z,7.67
2022-10-18T03:11:37.235Z,7.61
2022-10-18T03:12:38.817Z,7.51
2022-10-18T03:13:40.352Z,7.46
2022-10-18T03:14:41.872Z,7.41
2022-10-18T03:15:43.404Z,7.38
2022-10-18T03:16:44.949Z,7.38
2022-10-18T03:17:46.518Z,7.40
2022-10-18T03:18:48.034Z,7.49
2022-10-18T03:19:49.659Z,7.57
2022-10-18T03:20:51.171Z,7.70
2022-10-18T03:21:52.789Z,7.83
2022-10-18T03:22:54.320Z,7.88
2022-10-18T03:23:56.228Z,7.89
2022-10-18T03:24:57.737Z,7.88
2022-10-18T03:25:59.242Z,7.83
2022-10-18T03:27:00.907Z,7.79
2022-10-18T03:28:02.557Z,7.79
2022-10-18T03:29:04.161Z,7.81
2022-10-18T03:30:06.159Z,7.81
2022-10-18T03:31:07.671Z,7.79
2022-10-18T03:32:09.179Z,7.77
2022-10-18T03:33:10.699Z,7.76
2022-10-18T03:34:12.235Z,7.78
2022-10-18T03:35:13.746Z,7.81
2022-10-18T03:36:15.414Z,7.86
2022-10-18T03:37:17.033Z,7.89
2022-10-18T03:38:19.161Z,7.91
2022-10-18T03:39:20.878Z,7.95
2022-10-18T03:40:23.181Z,8.00
2022-10-18T03:41:24.812Z,8.04
2022-10-18T03:42:26.382Z,8.06
2022-10-18T03:43:27.945Z,8.03
2022-10-18T03:44:29.553Z,8.00
2022-10-18T03:45:31.652Z,8.01
2022-10-18T03:46:33.370Z,8.02
2022-10-18T03:47:34.977Z,8.02
2022-10-18T03:48:36.882Z,8.04
2022-10-18T03:49:39.042Z,8.04
2022-10-18T03:50:40.964Z,8.08
2022-10-18T03:51:42.478Z,8.13
2022-10-18T03:52:43.990Z,8.13
2022-10-18T03:53:45.535Z,8.08
2022-10-18T03:54:47.040Z,8.03
2022-10-18T03:55:55.601Z,7.94
2022-10-18T03:56:57.620Z,7.85
2022-10-18T03:57:59.147Z,7.83
2022-10-18T03:59:00.725Z,7.80
2022-10-18T04:00:02.273Z,7.81
2022-10-18T04:01:03.827Z,7.83
2022-10-18T04:02:05.479Z,7.83
2022-10-18T04:03:06.984Z,7.82
2022-10-18T04:04:08.545Z,7.82
2022-10-18T04:05:10.177Z,7.64
2022-10-18T04:06:11.707Z,7.41
2022-10-18T04:07:13.511Z,7.40
2022-10-18T04:08:15.523Z,7.43
2022-10-18T04:09:17.415Z,7.45
2022-10-18T04:10:18.961Z,7.49
2022-10-18T04:11:20.476Z,7.55
2022-10-18T04:12:22.009Z,7.46
2022-10-18T04:13:23.574Z,7.34
2022-10-18T04:14:25.212Z,7.25
2022-10-18T04:15:26.827Z,7.22
2022-10-18T04:16:28.361Z,7.27
2022-10-18T04:17:30.283Z,7.32
2022-10-18T04:18:34.737Z,7.25
2022-10-18T04:19:36.569Z,7.20
2022-10-18T04:20:38.263Z,7.22
2022-10-18T04:21:39.959Z,7.28
2022-10-18T04:22:41.568Z,7.33
2022-10-18T04:23:43.131Z,7.35
2022-10-18T04:24:44.760Z,7.41
2022-10-18T04:25:46.330Z,7.46
2022-10-18T04:26:47.883Z,7.51
2022-10-18T04:27:49.521Z,7.54
2022-10-18T04:28:51.249Z,7.54
2022-10-18T04:29:52.839Z,7.53
2022-10-18T04:30:54.394Z,7.55
2022-10-18T04:31:55.937Z,7.57
2022-10-18T04:32:57.471Z,7.61
2022-10-18T04:33:59.010Z,7.65
2022-10-18T04:35:00.599Z,7.68
2022-10-18T04:36:02.303Z,7.72
2022-10-18T04:37:03.842Z,7.72
2022-10-18T04:38:05.426Z,7.66
2022-10-18T04:39:07.031Z,7.65
2022-10-18T04:40:09.445Z,7.66
2022-10-18T04:41:10.965Z,7.66
2022-10-18T04:42:12.491Z,7.66
2022-10-18T04:43:14.041Z,7.61
2022-10-18T04:44:15.708Z,7.55
2022-10-18T04:45:17.333Z,7.52
2022-10-18T04:46:18.852Z,7.49
2022-10-18T04:47:20.487Z,7.51
2022-10-18T04:48:22.054Z,7.55
2022-10-18T04:49:23.569Z,7.57
2022-10-18T04:50:25.090Z,7.56
2022-10-18T04:51:27.269Z,7.58
2022-10-18T04:52:28.777Z,7.58
2022-10-18T04:53:30.362Z,7.59
2022-10-18T04:54:31.940Z,7.60
2022-10-18T04:55:33.463Z,7.62
2022-10-18T04:56:35.032Z,7.60
2022-10-18T04:57:36.598Z,7.59
2022-10-18T04:58:38.151Z,7.54
2022-10-18T04:59:39.686Z,7.53
2022-10-18T05:00:42.187Z,7.57
2022-10-18T05:01:43.813Z,7.58
2022-10-18T05:02:45.457Z,7.62
2022-10-18T05:03:47.009Z,7.65
2022-10-18T05:04:48.581Z,7.63
2022-10-18T05:06:01.263Z,7.62
2022-10-18T05:07:03.155Z,7.62
2022-10-18T05:08:06.805Z,7.64
2022-10-18T05:09:08.318Z,7.68
2022-10-18T05:10:10.108Z,7.72
2022-10-18T05:11:11.830Z,7.77
2022-10-18T05:12:13.391Z,7.83
2022-10-18T05:13:15.097Z,7.85
2022-10-18T05:14:16.952Z,7.85
2022-10-18T05:15:18.558Z,7.87
2022-10-18T05:16:20.295Z,7.89
2022-10-18T05:17:22.015Z,7.87
2022-10-18T05:18:23.536Z,7.88
2022-10-18T05:19:25.139Z,7.82
2022-10-18T05:20:26.654Z,7.84
2022-10-18T05:21:28.198Z,7.81
2022-10-18T05:22:30.007Z,7.77
2022-10-18T05:23:31.693Z,7.56
2022-10-18T05:24:33.210Z,7.19
2022-10-18T05:25:34.718Z,7.15
2022-10-18T05:26:36.354Z,6.99
2022-10-18T05:27:37.875Z,6.83
2022-10-18T05:28:40.859Z,6.55
2022-10-18T05:29:42.992Z,6.40
2022-10-18T05:30:44.549Z,6.23
2022-10-18T05:31:46.084Z,6.33
2022-10-18T05:32:47.695Z,6.54
2022-10-18T05:33:49.180Z,6.66
2022-10-18T05:34:50.713Z,6.77
2022-10-18T05:35:52.257Z,6.83
2022-10-18T05:36:53.792Z,6.94
2022-10-18T05:37:55.286Z,7.04
2022-10-18T05:38:58.620Z,7.14
2022-10-18T05:40:02.646Z,7.23
2022-10-18T05:41:05.357Z,7.28
2022-10-18T05:42:06.943Z,7.32
2022-10-18T05:43:08.476Z,7.37
2022-10-18T05:44:09.981Z,7.29
2022-10-18T05:45:11.525Z,7.29
2022-10-18T05:46:15.337Z,7.35
2022-10-18T05:47:17.305Z,7.46
2022-10-18T05:48:19.071Z,7.53
2022-10-18T05:49:20.841Z,7.63
2022-10-18T05:50:22.407Z,7.70
2022-10-18T05:51:24.111Z,7.80
2022-10-18T05:52:25.639Z,7.84
2022-10-18T05:53:37.100Z,7.90
2022-10-18T05:54:40.488Z,8.01
2022-10-18T05:55:42.009Z,8.01
2022-10-18T05:56:43.549Z,8.01
2022-10-18T05:57:50.178Z,8.09
2022-10-18T05:58:52.205Z,8.16
2022-10-18T05:59:53.749Z,8.17
2022-10-18T06:00:59.151Z,8.25
2022-10-18T06:02:00.738Z,7.79
2022-10-18T06:03:02.273Z,7.50
2022-10-18T06:04:03.879Z,7.52
2022-10-18T06:05:05.573Z,7.79
2022-10-18T06:06:10.124Z,8.11
2022-10-18T06:07:12.474Z,8.25
2022-10-18T06:08:14.197Z,8.36
2022-10-18T06:09:15.761Z,8.55
2022-10-18T06:10:17.282Z,8.72
2022-10-18T06:11:20.338Z,8.94
2022-10-18T06:12:21.876Z,9.07
2022-10-18T06:13:23.587Z,9.26
2022-10-18T06:14:25.142Z,9.43
2022-10-18T06:15:26.721Z,9.55
2022-10-18T06:16:32.195Z,9.70
2022-10-18T06:17:34.456Z,9.80
2022-10-18T06:18:36.629Z,9.91
2022-10-18T06:19:38.138Z,10.04
2022-10-18T06:20:39.659Z,10.16
2022-10-18T06:21:41.546Z,10.26
2022-10-18T06:22:43.058Z,10.29
2022-10-18T06:23:51.831Z,10.42
2022-10-18T06:24:57.126Z,10.56
2022-10-18T06:26:04.107Z,10.67
2022-10-18T06:27:09.039Z,10.71
2022-10-18T06:28:12.281Z,10.77
2022-10-18T06:29:15.231Z,10.62
2022-10-18T06:30:17.056Z,10.28
2022-10-18T06:31:21.309Z,9.75
2022-10-18T06:32:22.873Z,9.65
2022-10-18T06:33:24.711Z,9.83
2022-10-18T06:34:26.322Z,9.98
2022-10-18T06:35:27.890Z,10.17
2022-10-18T06:36:29.403Z,10.25
2022-10-18T06:37:31.331Z,10.10
2022-10-18T06:38:34.359Z,9.78
2022-10-18T06:39:35.909Z,9.74
2022-10-18T06:40:38.224Z,9.89
2022-10-18T06:41:39.797Z,10.04
2022-10-18T06:42:41.393Z,10.16
2022-10-18T06:43:43.853Z,10.30
2022-10-18T06:44:45.433Z,10.48
2022-10-18T06:45:47.018Z,10.59
2022-10-18T06:46:49.336Z,10.83
2022-10-18T06:47:50.849Z,10.84
2022-10-18T06:48:52.372Z,10.73
2022-10-18T06:49:53.947Z,10.78
2022-10-18T06:51:00.573Z,11.00
2022-10-18T06:52:02.452Z,11.21
2022-10-18T06:53:06.229Z,11.29
2022-10-18T06:54:17.612Z,11.26
2022-10-18T06:55:19.856Z,10.82
2022-10-18T06:56:21.434Z,10.58
2022-10-18T06:57:22.987Z,10.58
2022-10-18T06:58:24.545Z,10.77
2022-10-18T06:59:28.885Z,11.01
2022-10-18T07:00:32.757Z,11.27
2022-10-18T07:01:34.400Z,11.39
2022-10-18T07:02:37.442Z,11.44
2022-10-18T07:03:39.696Z,11.55
2022-10-18T07:04:42.072Z,11.60
2022-10-18T07:05:43.711Z,11.88
2022-10-18T07:06:45.387Z,12.12
2022-10-18T07:07:46.898Z,12.02
2022-10-18T07:08:49.670Z,11.96
2022-10-18T07:09:51.224Z,11.94
2022-10-18T07:10:53.354Z,11.96
2022-10-18T07:11:54.935Z,12.15
2022-10-18T07:13:19.683Z,12.34
2022-10-18T07:14:17.933Z,12.58
2022-10-18T07:15:22.604Z,12.41
2022-10-18T07:16:24.201Z,12.42
2022-10-18T07:17:26.426Z,12.67
2022-10-18T07:18:28.037Z,12.68
2022-10-18T07:19:29.558Z,12.30
2022-10-18T07:20:31.106Z,12.36
2022-10-18T07:21:32.669Z,12.53
2022-10-18T07:22:34.223Z,12.85
2022-10-18T07:23:37.509Z,12.95
2022-10-18T07:24:39.397Z,12.85
2022-10-18T07:25:40.930Z,12.71
2022-10-18T07:26:42.676Z,12.88
2022-10-18T07:27:44.192Z,12.79
2022-10-18T07:28:48.914Z,12.71
2022-10-18T07:29:50.521Z,12.84
2022-10-18T07:30:52.107Z,13.09
2022-10-18T07:31:53.627Z,13.17
2022-10-18T07:32:55.143Z,12.82
2022-10-18T07:33:57.247Z,12.91
2022-10-18T07:34:58.781Z,13.22
2022-10-18T07:36:05.394Z,13.54
2022-10-18T07:37:06.916Z,13.80
2022-10-18T07:38:08.433Z,13.85
2022-10-18T07:39:10.071Z,13.83
2022-10-18T07:40:12.202Z,13.99
2022-10-18T07:41:15.025Z,14.27
2022-10-18T07:42:16.607Z,14.52
2022-10-18T07:43:18.125Z,14.72
2022-10-18T07:44:19.715Z,14.90
2022-10-18T07:45:21.261Z,15.07
2022-10-18T07:46:23.059Z,14.99
2022-10-18T07:47:24.587Z,14.71
2022-10-18T07:48:26.725Z,14.70
2022-10-18T07:49:28.226Z,14.78
2022-10-18T07:50:29.950Z,14.85
2022-10-18T07:51:32.891Z,15.04
2022-10-18T07:52:34.562Z,15.11
2022-10-18T07:53:36.095Z,15.17
2022-10-18T07:54:37.691Z,15.13
2022-10-18T07:55:39.587Z,15.15
2022-10-18T07:56:41.331Z,15.34
2022-10-18T07:57:42.891Z,15.41
2022-10-18T07:58:45.978Z,15.51
2022-10-18T07:59:48.334Z,15.47
2022-10-18T08:00:49.885Z,15.39
2022-10-18T08:01:51.496Z,15.48
2022-10-18T08:02:57.690Z,15.20
2022-10-18T08:04:06.138Z,15.07
2022-10-18T08:05:09.602Z,15.16
2022-10-18T08:06:13.367Z,14.96
2022-10-18T08:07:14.914Z,14.77
2022-10-18T08:08:16.698Z,14.97
2022-10-18T08:09:18.428Z,15.10
2022-10-18T08:10:21.352Z,15.00
2022-10-18T08:11:24.826Z,14.99
2022-10-18T08:12:26.358Z,15.09
2022-10-18T08:13:27.905Z,14.78
2022-10-18T08:14:29.725Z,14.36
2022-10-18T08:15:31.314Z,14.20
2022-10-18T08:17:34.830Z,13.90
2022-10-18T08:18:38.021Z,14.00
2022-10-18T08:19:48.230Z,14.06
2022-10-18T08:21:01.503Z,14.46
2022-10-18T08:22:03.084Z,14.68
2022-10-18T08:23:04.871Z,14.94
2022-10-18T08:24:06.450Z,15.14
2022-10-18T08:25:08.606Z,15.31
2022-10-18T08:26:12.934Z,15.49
2022-10-18T08:27:15.413Z,15.69
2022-10-18T08:28:17.513Z,15.89
2022-10-18T08:29:23.219Z,16.12
2022-10-18T08:30:26.493Z,16.32
2022-10-18T08:31:28.137Z,16.38
2022-10-18T08:32:33.404Z,16.44
2022-10-18T08:33:36.256Z,16.61
2022-10-18T08:35:40.295Z,16.87
2022-10-18T08:36:41.940Z,17.03
2022-10-18T08:37:45.329Z,17.14
2022-10-18T08:38:47.130Z,16.69
2022-10-18T08:39:48.714Z,16.52
2022-10-18T08:40:50.845Z,16.56
2022-10-18T08:42:01.492Z,16.60
2022-10-18T08:43:22.626Z,16.80
2022-10-18T08:44:26.117Z,16.93
2022-10-18T08:45:41.466Z,17.03
2022-10-18T08:46:58.951Z,17.21
2022-10-18T08:48:01.557Z,17.27
2022-10-18T08:49:05.561Z,17.25
2022-10-18T08:50:14.893Z,17.28
2022-10-18T08:51:45.540Z,17.44
2022-10-18T08:53:25.940Z,17.61
2022-10-18T08:54:37.465Z,17.71
2022-10-18T08:56:11.242Z,17.77
2022-10-18T08:57:15.764Z,17.70
2022-10-18T08:58:19.918Z,17.74
2022-10-18T08:59:24.744Z,17.53
2022-10-18T09:00:34.494Z,17.35
2022-10-18T09:01:36.217Z,17.40
2022-10-18T09:03:16.769Z,17.51
2022-10-18T09:04:33.499Z,17.42
2022-10-18T09:06:01.384Z,17.14
2022-10-18T09:07:26.131Z,17.19
2022-10-18T09:09:11.354Z,17.33
2022-10-18T09:10:33.901Z,17.12
2022-10-18T09:11:51.097Z,16.79
2022-10-18T09:13:19.085Z,16.84
2022-10-18T09:14:32.498Z,16.77
2022-10-18T09:15:45.529Z,16.93
2022-10-18T09:17:05.917Z,17.08
2022-10-18T09:18:23.466Z,17.12
2022-10-18T09:19:55.175Z,17.26
2022-10-18T09:21:05.484Z,17.31
2022-10-18T09:22:13.934Z,17.24
2022-10-18T09:23:21.140Z,17.17
2022-10-18T09:24:32.829Z,17.38
2022-10-18T09:25:34.355Z,17.43
2022-10-18T09:26:50.141Z,17.53
2022-10-18T09:28:27.174Z,17.56
2022-10-18T09:29:54.744Z,17.63
2022-10-18T09:31:17.898Z,17.55
2022-10-18T09:32:44.783Z,17.25
2022-10-18T09:34:04.663Z,17.20
2022-10-18T09:35:24.206Z,17.32
2022-10-18T09:36:35.391Z,17.33
2022-10-18T09:37:37.014Z,17.34
2022-10-18T09:38:51.561Z,17.47
2022-10-18T09:40:03.215Z,17.52
2022-10-18T09:41:12.268Z,17.57
2022-10-18T09:42:26.831Z,17.44
2022-10-18T09:44:12.639Z,17.18
2022-10-18T09:45:37.845Z,17.38
2022-10-18T09:46:47.926Z,17.46
2022-10-18T09:48:04.476Z,17.61
2022-10-18T09:49:40.392Z,17.49
2022-10-18T09:50:46.454Z,17.39
2022-10-18T09:51:50.228Z,17.48
2022-10-18T09:53:02.140Z,17.41
2022-10-18T09:54:12.838Z,17.55
2022-10-18T09:55:28.732Z,17.61
2022-10-18T09:56:39.450Z,17.62
2022-10-18T09:57:57.321Z,17.80
2022-10-18T09:58:58.985Z,17.89
2022-10-18T10:00:03.328Z,17.90
2022-10-18T10:01:05.288Z,17.85
2022-10-18T10:02:09.366Z,17.73
2022-10-18T10:03:14.931Z,17.70
2022-10-18T10:04:16.435Z,17.67
2022-10-18T10:05:18.948Z,17.65
2022-10-18T10:06:29.973Z,17.72
2022-10-18T10:07:41.557Z,17.75
2022-10-18T10:09:07.389Z,17.76
2022-10-18T10:10:25.680Z,17.78
2022-10-18T10:11:28.766Z,17.77
2022-10-18T10:12:39.385Z,17.71
2022-10-18T10:13:40.975Z,17.67
2022-10-18T10:14:45.355Z,17.81
2022-10-18T10:16:03.263Z,17.86
2022-10-18T10:17:34.938Z,17.95
2022-10-18T10:18:40.289Z,17.93
2022-10-18T10:19:57.424Z,17.93
2022-10-18T10:21:01.856Z,17.85
2022-10-18T10:22:10.457Z,17.82
2022-10-18T10:23:37.385Z,17.87
2022-10-18T10:24:44.671Z,17.85
2022-10-18T10:25:52.012Z,17.87
2022-10-18T10:27:00.289Z,17.93
2022-10-18T10:28:13.343Z,18.08
2022-10-18T10:29:45.524Z,18.12
2022-10-18T10:30:47.559Z,18.22
2022-10-18T10:32:02.421Z,18.18
2022-10-18T10:33:06.713Z,18.18
2022-10-18T10:34:14.482Z,18.15
2022-10-18T10:35:42.322Z,18.13
2022-10-18T10:36:54.680Z,18.19
2022-10-18T10:37:57.161Z,18.08
2022-10-18T10:39:18.977Z,18.05
2022-10-18T10:40:26.372Z,17.98
2022-10-18T10:42:59.997Z,17.96
2022-10-18T10:44:26.285Z,17.98
2022-10-18T10:45:41.286Z,18.02
2022-10-18T10:46:43.487Z,18.04
2022-10-18T10:47:45.073Z,17.99
2022-10-18T10:49:09.579Z,17.89
2022-10-18T10:50:28.313Z,17.91
2022-10-18T10:51:29.854Z,17.90
2022-10-18T10:52:31.635Z,17.92
2022-10-18T10:53:59.039Z,18.04
2022-10-18T10:55:30.459Z,18.05
2022-10-18T10:56:53.199Z,18.08
2022-10-18T10:57:56.346Z,18.03
2022-10-18T10:59:14.517Z,17.94
2022-10-18T11:00:39.121Z,17.87
2022-10-18T11:01:41.732Z,17.96
2022-10-18T11:02:54.277Z,18.08
2022-10-18T11:04:28.122Z,18.22
2022-10-18T11:05:29.673Z,18.36
2022-10-18T11:06:34.261Z,18.40
2022-10-18T11:07:43.290Z,18.42
2022-10-18T11:10:01.272Z,18.58
2022-10-18T11:11:27.716Z,18.66
2022-10-18T11:12:52.431Z,18.63
2022-10-18T11:14:21.115Z,18.65
2022-10-18T11:15:43.321Z,18.62
2022-10-18T11:17:08.061Z,18.70
2022-10-18T11:18:24.162Z,18.68
2022-10-18T11:19:39.349Z,18.70
2022-10-18T11:20:46.138Z,18.65
2022-10-18T11:21:47.834Z,18.69
2022-10-18T11:23:19.272Z,18.74
2022-10-18T11:24:24.942Z,18.73
2022-10-18T11:25:52.614Z,18.62
2022-10-18T11:27:02.161Z,18.57
2022-10-18T11:28:12.038Z,18.66
2022-10-18T11:29:39.991Z,18.58
2022-10-18T11:30:47.836Z,18.54
2022-10-18T11:31:49.333Z,18.50
2022-10-18T11:33:15.745Z,18.39
2022-10-18T11:34:32.781Z,18.47
2022-10-18T11:35:54.590Z,18.52
2022-10-18T11:37:23.044Z,18.56
2022-10-18T11:38:29.362Z,18.67
2022-10-18T11:39:57.459Z,18.74
2022-10-18T11:41:27.810Z,18.72
2022-10-18T11:42:47.826Z,18.65
2022-10-18T11:44:02.244Z,18.69
2022-10-18T11:45:10.729Z,18.76
2022-10-18T11:46:44.879Z,18.67
2022-10-18T11:48:04.696Z,18.64
2022-10-18T11:49:11.571Z,18.65
2022-10-18T11:50:26.597Z,18.67
2022-10-18T11:51:50.220Z,18.66
2022-10-18T11:52:55.878Z,18.64
2022-10-18T11:54:15.509Z,18.70
2022-10-18T11:55:38.516Z,18.85
2022-10-18T11:56:52.303Z,18.92
2022-10-18T11:58:40.540Z,18.99
2022-10-18T12:00:02.837Z,18.99
2022-10-18T12:01:28.916Z,19.05
2022-10-18T12:02:55.935Z,19.12
2022-10-18T12:04:03.279Z,19.21
2022-10-18T12:06:37.402Z,19.27
2022-10-18T12:07:58.430Z,19.25
2022-10-18T12:09:08.167Z,19.30
2022-10-18T12:10:22.079Z,19.31
2022-10-18T12:11:44.019Z,19.41
2022-10-18T12:12:58.408Z,19.46
2022-10-18T12:14:03.392Z,19.33
2022-10-18T12:15:16.208Z,19.16
2022-10-18T12:16:38.866Z,19.23
2022-10-18T12:17:52.618Z,19.29
2022-10-18T12:19:00.378Z,19.31
2022-10-18T12:20:11.360Z,19.31
2022-10-18T12:21:13.788Z,19.34
2022-10-18T12:22:28.333Z,19.36
2022-10-18T12:23:29.920Z,19.30
2022-10-18T12:24:33.113Z,19.17
2022-10-18T12:25:38.587Z,19.17
2022-10-18T12:26:40.369Z,19.15
2022-10-18T12:28:17.289Z,19.22
2022-10-18T12:29:35.355Z,19.28
2022-10-18T12:31:03.117Z,19.31
2022-10-18T12:32:16.609Z,19.24
2022-10-18T12:33:28.125Z,19.28
2022-10-18T12:34:36.486Z,19.37
2022-10-18T12:36:06.010Z,19.43
2022-10-18T12:37:35.405Z,19.45
2022-10-18T12:38:41.585Z,19.46
2022-10-18T12:40:12.463Z,19.40
2022-10-18T12:41:22.832Z,19.30
2022-10-18T12:42:30.894Z,19.28
2022-10-18T12:43:37.940Z,19.27
2022-10-18T12:44:40.226Z,19.28
2022-10-18T12:45:54.659Z,19.33
2022-10-18T12:46:58.750Z,19.36
2022-10-18T12:48:07.647Z,19.39
2022-10-18T12:49:11.713Z,19.52
2022-10-18T12:50:35.202Z,19.56
2022-10-18T12:51:50.789Z,19.53
2022-10-18T12:53:10.255Z,19.45
2022-10-18T12:54:12.851Z,19.51
2022-10-18T12:55:19.453Z,19.54
2022-10-18T12:56:30.784Z,19.50
2022-10-18T12:57:53.795Z,19.52
2022-10-18T12:59:17.131Z,19.57
2022-10-18T13:00:31.010Z,19.55
2022-10-18T13:01:50.692Z,19.49
2022-10-18T13:03:18.121Z,19.55
2022-10-18T13:04:28.834Z,19.55
2022-10-18T13:05:53.515Z,19.59
2022-10-18T13:07:05.221Z,19.65
2022-10-18T13:08:31.690Z,19.71
2022-10-18T13:10:02.936Z,19.73
2022-10-18T13:11:10.509Z,19.77
2022-10-18T13:12:14.677Z,19.75
2022-10-18T13:13:40.525Z,19.76
2022-10-18T13:15:12.642Z,19.74
2022-10-18T13:16:22.768Z,19.68
2022-10-18T13:17:36.459Z,19.62
2022-10-18T13:18:52.267Z,19.60
2022-10-18T13:20:24.691Z,19.60
2022-10-18T13:21:58.501Z,19.69
2022-10-18T13:23:00.035Z,19.72
2022-10-18T13:24:14.843Z,19.68
2022-10-18T13:25:29.347Z,19.71
2022-10-18T13:26:58.149Z,19.76
2022-10-18T13:28:35.925Z,19.89
2022-10-18T13:30:00.869Z,19.94
2022-10-18T13:31:24.161Z,19.98
2022-10-18T13:32:44.387Z,20.01
2022-10-18T13:33:46.052Z,20.03
2022-10-18T13:34:47.692Z,20.06
2022-10-18T13:36:07.797Z,20.18
2022-10-18T13:37:09.271Z,20.09
2022-10-18T13:38:34.587Z,20.00
2022-10-18T13:39:38.234Z,19.99
2022-10-18T13:40:40.061Z,20.04
2022-10-18T13:41:47.686Z,20.09
2022-10-18T13:42:49.275Z,20.11
2022-10-18T13:43:53.592Z,20.08
2022-10-18T13:44:55.159Z,20.01
2022-10-18T13:45:56.777Z,20.02
2022-10-18T13:46:58.346Z,20.09
2022-10-18T13:48:30.882Z,20.15
2022-10-18T13:49:38.586Z,20.20
2022-10-18T13:50:43.454Z,20.20
2022-10-18T13:51:57.882Z,20.21
2022-10-18T13:53:02.385Z,20.29
2022-10-18T13:54:21.945Z,20.32
2022-10-18T13:55:23.530Z,20.31
2022-10-18T13:56:45.304Z,20.33
2022-10-18T13:58:11.708Z,20.28
2022-10-18T13:59:20.905Z,20.21
2022-10-18T14:00:49.127Z,20.21
2022-10-18T14:02:10.000Z,20.26
2022-10-18T14:03:57.526Z,20.29
2022-10-18T14:05:25.051Z,20.23
2022-10-18T14:06:37.255Z,20.27
2022-10-18T14:07:40.666Z,20.29
2022-10-18T14:08:44.708Z,20.29
2022-10-18T14:09:55.635Z,20.29
2022-10-18T14:11:03.289Z,20.32
2022-10-18T14:12:22.949Z,20.42
2022-10-18T14:13:28.845Z,20.48
2022-10-18T14:14:50.369Z,20.43
2022-10-18T14:15:56.066Z,20.43
2022-10-18T14:17:07.390Z,20.44
2022-10-18T14:18:17.410Z,20.41
2022-10-18T14:19:50.832Z,20.40
2022-10-18T14:21:12.768Z,20.37
2022-10-18T14:22:24.986Z,20.37
2022-10-18T14:23:31.645Z,20.32
2022-10-18T14:24:34.221Z,20.34
2022-10-18T14:25:37.924Z,20.31
2022-10-18T14:27:48.693Z,20.38
2022-10-18T14:29:16.021Z,20.41
2022-10-18T14:30:20.228Z,20.42
2022-10-18T14:31:21.764Z,20.43
2022-10-18T14:32:27.778Z,20.44
2022-10-18T14:33:37.060Z,20.38
2022-10-18T14:34:38.776Z,20.36
2022-10-18T14:35:41.354Z,20.38
2022-10-18T14:36:47.715Z,20.37
2022-10-18T14:37:54.304Z,20.38
2022-10-18T14:39:00.792Z,20.41
2022-10-18T14:40:04.296Z,20.42
2022-10-18T14:41:23.595Z,20.45
2022-10-18T14:42:27.608Z,20.44
2022-10-18T14:43:29.142Z,20.44
2022-10-18T14:44:32.134Z,20.45
2022-10-18T14:45:33.795Z,20.45
2022-10-18T14:46:45.701Z,20.47
2022-10-18T14:47:47.546Z,20.48
2022-10-18T14:48:57.014Z,20.46
2022-10-18T14:49:58.818Z,20.45
2022-10-18T14:51:03.766Z,20.41
2022-10-18T14:52:05.607Z,20.42
2022-10-18T14:53:09.586Z,20.40
2022-10-18T14:54:29.056Z,20.24